createdAt,value
2022-12-04T00:02:20.037Z,100599.78
2022-12-04T00:07:22.778Z,100607.00
2022-12-04T00:12:26.000Z,100599.91
2022-12-04T00:17:30.177Z,100604.41
2022-12-04T00:22:33.054Z,100611.63
2022-12-04T00:27:35.888Z,100614.19
2022-12-04T00:32:39.971Z,100621.50
2022-12-04T00:37:42.714Z,100621.63
2022-12-04T00:42:45.499Z,100613.44
2022-12-04T00:47:49.632Z,100618.94
2022-12-04T00:52:52.545Z,100601.13
2022-12-04T00:57:59.765Z,100608.44
2022-12-04T01:03:04.393Z,100599.53
2022-12-04T01:08:07.316Z,100595.09
2022-12-04T01:13:10.187Z,100581.91
2022-12-04T01:18:14.378Z,100581.06
2022-12-04T01:23:17.309Z,100572.91
2022-12-04T01:28:20.239Z,100574.72
2022-12-04T01:33:24.346Z,100551.66
2022-12-04T01:38:27.241Z,100555.19
2022-12-04T01:43:30.980Z,100557.16
2022-12-04T01:48:36.035Z,100557.03
2022-12-04T01:53:40.306Z,100549.09
2022-12-04T01:58:44.357Z,100548.97
2022-12-04T02:03:48.479Z,100559.09
2022-12-04T02:08:51.244Z,100548.97
2022-12-04T02:13:58.394Z,100559.72
2022-12-04T02:19:06.117Z,100548.97
2022-12-04T02:24:32.470Z,100546.28
2022-12-04T02:29:38.219Z,100561.53
2022-12-04T02:34:43.030Z,100548.00
2022-12-04T02:39:49.238Z,100540.06
2022-12-04T02:44:54.457Z,100539.72
2022-12-04T02:49:58.853Z,100528.13
2022-12-04T02:55:08.191Z,100529.09
2022-12-04T03:00:14.354Z,100521.91
2022-12-04T03:05:18.184Z,100526.41
2022-12-04T03:10:23.892Z,100530.88
2022-12-04T03:15:30.578Z,100525.69
2022-12-04T03:20:33.968Z,100538.66
2022-12-04T03:25:38.355Z,100533.28
2022-12-04T03:30:44.339Z,100534.63
2022-12-04T03:35:48.632Z,100527.09
2022-12-04T03:40:55.779Z,100533.31
2022-12-04T03:46:00.771Z,100540.13
2022-12-04T03:51:06.588Z,100540.19
2022-12-04T03:56:11.186Z,100547.66
2022-12-04T04:01:15.487Z,100552.44
2022-12-04T04:06:20.159Z,100553.09
2022-12-04T04:11:24.979Z,100541.25
2022-12-04T04:16:47.353Z,100548.97
2022-12-04T04:22:08.334Z,100543.13
2022-12-04T04:27:11.146Z,100538.63
2022-12-04T04:32:15.906Z,100532.16
2022-12-04T04:37:24.700Z,100541.69
2022-12-04T04:42:28.749Z,100552.31
2022-12-04T04:47:34.612Z,100542.19
2022-12-04T04:52:37.511Z,100526.59
2022-12-04T04:57:40.299Z,100524.53
2022-12-04T05:02:44.667Z,100523.44
2022-12-04T05:07:47.605Z,100539.09
2022-12-04T05:12:50.416Z,100531.69
2022-12-04T05:17:54.511Z,100518.88
2022-12-04T05:22:57.356Z,100518.63
2022-12-04T05:28:00.152Z,100516.44
2022-12-04T05:33:04.546Z,100519.00
2022-12-04T05:38:07.306Z,100520.59
2022-12-04T05:43:10.084Z,100529.38
2022-12-04T05:48:14.306Z,100518.28
2022-12-04T05:53:17.179Z,100520.84
2022-12-04T05:58:19.953Z,100514.28
2022-12-04T06:03:24.179Z,100497.16
2022-12-04T06:08:27.118Z,100484.47
2022-12-04T06:13:29.888Z,100497.66
2022-12-04T06:18:34.069Z,100481.66
2022-12-04T06:23:36.995Z,100477.38
2022-12-04T06:28:39.732Z,100482.63
2022-12-04T06:33:43.944Z,100485.19
2022-12-04T06:38:47.474Z,100496.91
2022-12-04T06:43:51.539Z,100505.09
2022-12-04T06:48:56.476Z,100518.53
2022-12-04T06:53:59.452Z,100510.34
2022-12-04T06:59:03.017Z,100512.31
2022-12-04T07:04:07.208Z,100516.84
2022-12-04T07:09:11.160Z,100538.56
2022-12-04T07:14:14.044Z,100543.72
2022-12-04T07:19:18.168Z,100532.19
2022-12-04T07:24:21.043Z,100527.81
2022-12-04T07:29:23.820Z,100533.31
2022-12-04T07:34:28.252Z,100534.41
2022-12-04T07:39:31.177Z,100531.00
2022-12-04T07:44:33.973Z,100537.34
2022-12-04T07:49:38.626Z,100532.56
2022-12-04T07:54:41.582Z,100536.50
2022-12-04T07:59:44.449Z,100531.72
2022-12-04T08:04:48.880Z,100526.59
2022-12-04T08:09:51.759Z,100534.03
2022-12-04T08:14:54.493Z,100536.06
2022-12-04T08:19:58.855Z,100551.91
2022-12-04T08:25:01.757Z,100557.38
2022-12-04T08:30:04.999Z,100552.06
2022-12-04T08:35:09.899Z,100548.53
2022-12-04T08:40:14.149Z,100543.44
2022-12-04T08:45:17.120Z,100538.47
2022-12-04T08:50:21.231Z,100528.44
2022-12-04T08:55:24.064Z,100532.38
2022-12-04T09:00:27.272Z,100521.47
2022-12-04T09:05:31.753Z,100526.00
2022-12-04T09:10:35.217Z,100541.28
2022-12-04T09:15:39.780Z,100522.59
2022-12-04T09:20:44.036Z,100531.13
2022-12-04T09:25:46.895Z,100514.41
2022-12-04T09:30:58.055Z,100515.97
2022-12-04T09:36:02.242Z,100519.91
2022-12-04T09:41:08.316Z,100519.91
2022-12-04T09:46:12.799Z,100514.63
2022-12-04T09:51:19.600Z,100511.84
2022-12-04T09:56:22.794Z,100494.81
2022-12-04T10:01:26.363Z,100481.03
2022-12-04T10:06:33.164Z,100480.78
2022-12-04T10:11:41.486Z,100490.56
2022-12-04T10:16:51.380Z,100506.81
2022-12-04T10:22:00.456Z,100490.06
2022-12-04T10:27:05.715Z,100488.09
2022-12-04T10:32:17.329Z,100485.41
2022-12-04T10:37:21.755Z,100488.38
2022-12-04T10:42:28.375Z,100482.13
2022-12-04T10:47:31.888Z,100486.78
2022-12-04T10:52:36.091Z,100489.47
2022-12-04T10:57:40.038Z,100479.78
2022-12-04T11:02:43.082Z,100487.25
2022-12-04T11:07:48.092Z,100485.56
2022-12-04T11:12:57.575Z,100476.38
2022-12-04T11:18:08.973Z,100470.28
2022-12-04T11:23:15.113Z,100474.81
2022-12-04T11:28:39.871Z,100482.75
2022-12-04T11:33:46.709Z,100472.00
2022-12-04T11:38:50.855Z,100459.78
2022-12-04T11:43:59.383Z,100472.69
2022-12-04T11:49:04.012Z,100468.34
2022-12-04T11:54:15.579Z,100457.69
2022-12-04T11:59:37.558Z,100459.63
2022-12-04T12:04:58.335Z,100443.03
2022-12-04T12:10:05.041Z,100438.09
2022-12-04T12:15:12.980Z,100431.50
2022-12-04T12:20:17.701Z,100423.97
2022-12-04T12:25:22.799Z,100426.53
2022-12-04T12:30:25.583Z,100420.41
2022-12-04T12:35:30.497Z,100424.09
2022-12-04T12:40:36.296Z,100419.31
2022-12-04T12:45:42.846Z,100402.06
2022-12-04T12:50:54.714Z,100392.03
2022-12-04T12:56:10.716Z,100382.66
2022-12-04T13:01:18.358Z,100375.44
2022-12-04T13:06:24.287Z,100386.19
2022-12-04T13:11:28.707Z,100387.31
2022-12-04T13:16:34.343Z,100377.28
2022-12-04T13:21:38.401Z,100374.31
2022-12-04T13:26:49.524Z,100349.88
2022-12-04T13:31:55.645Z,100348.03
2022-12-04T13:37:16.210Z,100349.13
2022-12-04T13:42:23.488Z,100362.81
2022-12-04T13:47:28.145Z,100359.25
2022-12-04T13:52:40.483Z,100356.72
2022-12-04T13:57:54.035Z,100358.41
2022-12-04T14:02:57.546Z,100355.59
2022-12-04T14:08:07.337Z,100372.13
2022-12-04T14:13:19.142Z,100372.97
2022-12-04T14:18:27.027Z,100364.28
2022-12-04T14:23:35.597Z,100358.19
2022-12-04T14:28:43.793Z,100374.59
2022-12-04T14:33:49.451Z,100365.94
2022-12-04T14:38:59.281Z,100369.34
2022-12-04T14:44:03.434Z,100370.69
2022-12-04T14:49:15.087Z,100384.75
2022-12-04T14:54:22.068Z,100382.19
2022-12-04T14:59:29.737Z,100390.97
2022-12-04T15:04:34.088Z,100371.91
2022-12-04T15:09:54.658Z,100362.69
2022-12-04T15:14:58.959Z,100358.41
2022-12-04T15:20:10.168Z,100350.47
2022-12-04T15:25:18.525Z,100357.41
2022-12-04T15:30:23.690Z,100351.94
2022-12-04T15:35:28.250Z,100350.88
2022-12-04T15:40:31.305Z,100338.13
2022-12-04T15:45:35.427Z,100339.13
2022-12-04T15:50:38.411Z,100330.53
2022-12-04T15:55:49.508Z,100336.66
2022-12-04T16:00:56.695Z,100336.19
2022-12-04T16:06:07.761Z,100325.91
2022-12-04T16:11:24.416Z,100326.19
2022-12-04T16:16:28.712Z,100323.53
2022-12-04T16:21:32.079Z,100325.38
2022-12-04T16:26:35.055Z,100327.09
2022-12-04T16:31:39.545Z,100326.47
2022-12-04T16:36:42.504Z,100322.78
2022-12-04T16:41:45.259Z,100314.84
2022-12-04T16:46:49.693Z,100318.84
2022-12-04T16:51:52.503Z,100324.44
2022-12-04T16:56:55.408Z,100325.03
2022-12-04T17:01:59.597Z,100318.56
2022-12-04T17:07:02.403Z,100323.22
2022-12-04T17:12:05.415Z,100333.66
2022-12-04T17:17:09.536Z,100328.28
2022-12-04T17:22:14.155Z,100326.09
2022-12-04T17:27:16.887Z,100326.22
2022-12-04T17:32:21.022Z,100327.09
2022-12-04T17:37:23.778Z,100333.44
2022-12-04T17:42:26.580Z,100333.53
2022-12-04T17:47:30.726Z,100321.56
2022-12-04T17:52:33.862Z,100307.41
2022-12-04T17:57:36.689Z,100305.44
2022-12-04T18:02:42.538Z,100306.28
2022-12-04T18:07:45.486Z,100300.66
2022-12-04T18:12:48.278Z,100301.50
2022-12-04T18:17:52.440Z,100291.41
2022-12-04T18:22:55.368Z,100305.72
2022-12-04T18:27:59.449Z,100307.00
2022-12-04T18:33:03.690Z,100306.44
2022-12-04T18:38:06.456Z,100311.94
2022-12-04T18:43:09.290Z,100311.81
2022-12-04T18:48:14.801Z,100295.31
2022-12-04T18:53:18.529Z,100311.66
2022-12-04T18:58:22.607Z,100312.78
2022-12-04T19:03:26.698Z,100313.63
2022-12-04T19:08:33.221Z,100310.81
2022-12-04T19:13:37.817Z,100312.78
2022-12-04T19:18:42.304Z,100307.41
2022-12-04T19:23:50.079Z,100317.03
2022-12-04T19:28:53.921Z,100309.84
2022-12-04T19:33:58.037Z,100308.97
2022-12-04T19:39:01.335Z,100312.38
2022-12-04T19:44:20.010Z,100318.88
2022-12-04T19:49:28.567Z,100329.63
2022-12-04T19:54:31.761Z,100325.13
2022-12-04T19:59:37.772Z,100333.19
2022-12-04T20:04:44.136Z,100326.09
2022-12-04T20:09:51.926Z,100328.66
2022-12-04T20:14:55.331Z,100320.59
2022-12-04T20:19:59.719Z,100319.47
2022-12-04T20:25:02.880Z,100311.81
2022-12-04T20:30:07.184Z,100308.25
2022-12-04T20:35:11.504Z,100293.00
2022-12-04T20:40:14.584Z,100295.53
2022-12-04T20:45:17.570Z,100293.00
2022-12-04T20:50:21.716Z,100286.50
2022-12-04T20:55:24.573Z,100291.28
2022-12-04T21:00:28.572Z,100285.63
2022-12-04T21:05:32.827Z,100291.88
2022-12-04T21:10:35.769Z,100290.03
2022-12-04T21:15:55.993Z,100283.81
2022-12-04T21:21:00.138Z,100273.91
2022-12-04T21:26:03.378Z,100272.06
2022-12-04T21:31:06.753Z,100273.91
2022-12-04T21:36:11.431Z,100270.50
2022-12-04T21:41:35.080Z,100270.50
2022-12-04T21:46:37.964Z,100272.47
2022-12-04T21:51:58.842Z,100281.03
2022-12-04T21:57:02.134Z,100270.63
2022-12-04T22:02:04.958Z,100275.16
2022-12-04T22:07:09.197Z,100274.53
2022-12-04T22:12:41.375Z,100266.75
2022-12-04T22:17:34.843Z,100271.53
2022-12-04T22:22:39.020Z,100264.94
2022-12-04T22:27:41.829Z,100261.03
2022-12-04T22:32:45.218Z,100261.31
2022-12-04T22:37:49.536Z,100266.91
2022-12-04T22:42:52.290Z,100276.34
2022-12-04T22:47:55.074Z,100274.03
2022-12-04T22:52:59.305Z,100275.00
2022-12-04T22:58:02.127Z,100277.22
2022-12-04T23:03:05.117Z,100274.66
2022-12-04T23:08:10.005Z,100272.00
2022-12-04T23:13:12.850Z,100271.72
2022-12-04T23:18:15.627Z,100264.13
2022-12-04T23:23:19.946Z,100263.91
2022-12-04T23:28:23.166Z,100259.63
2022-12-04T23:33:26.168Z,100251.69
2022-12-04T23:38:30.391Z,100253.28
2022-12-04T23:43:33.271Z,100243.03
2022-12-04T23:48:36.231Z,100245.97
2022-12-04T23:53:40.507Z,100251.72
2022-12-04T23:58:43.572Z,100249.03
